createdAt,value
2018-01-02T00:01:57.869Z,97928.23
2018-01-02T00:04:26.148Z,97935.31
2018-01-02T00:06:54.431Z,97941.63
2018-01-02T00:09:22.686Z,97932.70
2018-01-02T00:11:50.954Z,97953.98
2018-01-02T00:14:19.254Z,97939.39
2018-01-02T00:16:47.507Z,97928.78
2018-01-02T00:19:15.832Z,97949.88
2018-01-02T00:21:44.090Z,97964.86
2018-01-02T00:24:12.376Z,97978.12
2018-01-02T00:26:40.641Z,97982.30
2018-01-02T00:29:08.906Z,97977.44
2018-01-02T00:31:37.150Z,97984.01
2018-01-02T00:34:05.457Z,97978.75
2018-01-02T00:36:33.754Z,97973.23
2018-01-02T00:39:02.042Z,97988.33
2018-01-02T00:41:30.303Z,97988.47
2018-01-02T00:43:58.585Z,97999.62
2018-01-02T00:46:26.845Z,98008.80
2018-01-02T00:48:55.097Z,98015.22
2018-01-02T00:51:23.383Z,98030.04
2018-01-02T00:53:51.660Z,98027.89
2018-01-02T00:56:19.934Z,98042.48
2018-01-02T00:58:48.171Z,98045.48
2018-01-02T01:01:16.464Z,98056.64
2018-01-02T01:03:44.737Z,98069.12
2018-01-02T01:06:13.016Z,98056.92
2018-01-02T01:08:41.308Z,98070.17
2018-01-02T01:11:10.407Z,98076.75
2018-01-02T01:13:38.680Z,98072.41
2018-01-02T01:16:06.913Z,98082.66
2018-01-02T01:18:35.206Z,98091.08
2018-01-02T01:21:03.464Z,98082.65
2018-01-02T01:23:31.754Z,98101.04
2018-01-02T01:26:00.029Z,98109.98
2018-01-02T01:28:28.321Z,98106.01
2018-01-02T01:30:56.577Z,98112.33
2018-01-02T01:33:24.868Z,98124.17
2018-01-02T01:35:53.173Z,98128.51
2018-01-02T01:38:21.451Z,98124.17
2018-01-02T01:40:49.733Z,98131.52
2018-01-02T01:43:18.004Z,98132.05
2018-01-02T01:45:46.293Z,98139.95
2018-01-02T01:48:15.129Z,98140.45
2018-01-02T01:50:43.399Z,98133.36
2018-01-02T01:53:11.651Z,98135.45
2018-01-02T01:55:39.929Z,98152.03
2018-01-02T01:58:08.197Z,98152.03
2018-01-02T02:00:36.473Z,98151.89
2018-01-02T02:03:04.746Z,98162.34
2018-01-02T02:05:33.057Z,98163.52
2018-01-02T02:08:01.306Z,98156.86
2018-01-02T02:10:29.681Z,98149.22
2018-01-02T02:12:57.962Z,98158.30
2018-01-02T02:15:26.373Z,98162.64
2018-01-02T02:17:54.684Z,98171.41
2018-01-02T02:20:22.929Z,98174.30
2018-01-02T02:22:51.251Z,98173.11
2018-01-02T02:25:19.509Z,98170.80
2018-01-02T02:27:47.827Z,98176.30
2018-01-02T02:30:16.118Z,98174.05
2018-01-02T02:32:44.447Z,98164.77
2018-01-02T02:35:13.123Z,98169.48
2018-01-02T02:37:41.398Z,98174.47
2018-01-02T02:40:09.686Z,98190.52
2018-01-02T02:42:37.996Z,98178.29
2018-01-02T02:45:06.239Z,98187.86
2018-01-02T02:47:34.501Z,98188.76
2018-01-02T02:50:02.764Z,98189.80
2018-01-02T02:52:31.087Z,98195.04
2018-01-02T02:54:59.337Z,98180.22
2018-01-02T02:57:27.584Z,98186.56
2018-01-02T02:59:55.859Z,98182.11
2018-01-02T03:02:24.159Z,98171.70
2018-01-02T03:04:52.451Z,98186.70
2018-01-02T03:07:20.711Z,98200.35
2018-01-02T03:09:49.007Z,98193.64
2018-01-02T03:12:17.284Z,98195.25
2018-01-02T03:14:46.467Z,98193.14
2018-01-02T03:17:14.746Z,98193.69
2018-01-02T03:19:43.021Z,98196.28
2018-01-02T03:22:11.410Z,98193.27
2018-01-02T03:24:39.675Z,98188.63
2018-01-02T03:27:07.955Z,98182.21
2018-01-02T03:29:36.238Z,98207.65
2018-01-02T03:32:04.518Z,98201.25
2018-01-02T03:34:32.791Z,98195.35
2018-01-02T03:37:01.067Z,98202.21
2018-01-02T03:39:29.349Z,98205.60
2018-01-02T03:41:57.624Z,98207.00
2018-01-02T03:44:25.910Z,98205.70
2018-01-02T03:46:54.157Z,98200.39
2018-01-02T03:49:22.465Z,98206.45
2018-01-02T03:51:50.740Z,98219.91
2018-01-02T03:54:19.015Z,98210.66
2018-01-02T03:56:47.274Z,98220.51
2018-01-02T03:59:15.563Z,98231.54
2018-01-02T04:01:43.840Z,98219.34
2018-01-02T04:04:12.124Z,98227.63
2018-01-02T04:06:40.404Z,98215.23
2018-01-02T04:09:08.683Z,98236.12
2018-01-02T04:11:36.962Z,98220.28
2018-01-02T04:14:05.263Z,98234.41
2018-01-02T04:16:33.503Z,98245.16
2018-01-02T04:19:01.783Z,98254.25
2018-01-02T04:21:30.077Z,98247.84
2018-01-02T04:23:58.371Z,98250.20
2018-01-02T04:26:26.619Z,98246.38
2018-01-02T04:28:54.895Z,98253.62
2018-01-02T04:31:23.163Z,98260.30
2018-01-02T04:33:51.442Z,98248.71
2018-01-02T04:36:19.687Z,98265.50
2018-01-02T04:38:47.964Z,98252.17
2018-01-02T04:41:16.260Z,98260.88
2018-01-02T04:43:44.492Z,98263.26
2018-01-02T04:46:12.791Z,98272.54
2018-01-02T04:48:41.026Z,98262.46
2018-01-02T04:51:09.348Z,98269.44
2018-01-02T04:53:37.577Z,98285.05
2018-01-02T04:56:05.991Z,98269.82
2018-01-02T04:58:34.269Z,98265.45
2018-01-02T05:01:02.558Z,98271.20
2018-01-02T05:03:30.835Z,98285.21
2018-01-02T05:05:59.919Z,98275.69
2018-01-02T05:08:28.186Z,98282.70
2018-01-02T05:10:56.470Z,98278.14
2018-01-02T05:13:24.747Z,98272.20
2018-01-02T05:15:53.023Z,98278.84
2018-01-02T05:18:21.324Z,98292.25
2018-01-02T05:20:49.575Z,98292.15
2018-01-02T05:23:17.854Z,98288.17
2018-01-02T05:25:46.119Z,98284.03
2018-01-02T05:28:14.406Z,98293.47
2018-01-02T05:30:42.658Z,98293.27
2018-01-02T05:33:10.957Z,98311.02
2018-01-02T05:35:39.210Z,98301.25
2018-01-02T05:38:07.483Z,98313.58
2018-01-02T05:40:35.756Z,98327.50
2018-01-02T05:43:04.007Z,98331.08
2018-01-02T05:45:32.277Z,98324.52
2018-01-02T05:48:00.524Z,98348.38
2018-01-02T05:50:28.802Z,98348.28
2018-01-02T05:52:57.043Z,98363.86
2018-01-02T05:55:25.346Z,98374.33
2018-01-02T05:57:53.749Z,98366.47
2018-01-02T06:00:21.998Z,98373.82
2018-01-02T06:02:50.248Z,98380.91
2018-01-02T06:05:18.525Z,98382.76
2018-01-02T06:07:46.791Z,98387.89
2018-01-02T06:10:15.037Z,98391.36
2018-01-02T06:12:43.462Z,98399.61
2018-01-02T06:15:11.686Z,98381.48
2018-01-02T06:17:39.956Z,98394.08
2018-01-02T06:20:08.251Z,98421.02
2018-01-02T06:22:36.542Z,98406.43
2018-01-02T06:25:04.836Z,98420.88
2018-01-02T06:27:33.104Z,98411.67
2018-01-02T06:30:01.366Z,98442.40
2018-01-02T06:32:29.668Z,98429.63
2018-01-02T06:34:57.911Z,98441.16
2018-01-02T06:37:26.188Z,98445.52
2018-01-02T06:39:54.505Z,98463.28
2018-01-02T06:42:22.783Z,98467.17
2018-01-02T06:44:51.066Z,98462.75
2018-01-02T06:47:19.318Z,98456.95
2018-01-02T06:49:47.590Z,98463.50
2018-01-02T06:52:15.916Z,98470.80
2018-01-02T06:54:44.291Z,98462.95
2018-01-02T06:57:12.787Z,98464.32
2018-01-02T06:59:41.055Z,98477.22
2018-01-02T07:02:09.321Z,98491.06
2018-01-02T07:04:37.583Z,98504.33
2018-01-02T07:07:05.883Z,98507.33
2018-01-02T07:09:34.149Z,98506.56
2018-01-02T07:12:02.431Z,98500.53
2018-01-02T07:14:30.686Z,98527.91
2018-01-02T07:16:58.967Z,98534.47
2018-01-02T07:19:27.198Z,98522.02
2018-01-02T07:21:55.716Z,98536.29
2018-01-02T07:24:24.095Z,98554.73
2018-01-02T07:26:52.470Z,98526.93
2018-01-02T07:29:20.723Z,98546.34
2018-01-02T07:31:48.995Z,98561.33
2018-01-02T07:34:17.279Z,98537.89
2018-01-02T07:36:45.597Z,98564.17
2018-01-02T07:39:13.822Z,98568.48
2018-01-02T07:41:42.140Z,98572.77
2018-01-02T07:44:10.507Z,98577.31
2018-01-02T07:46:38.805Z,98590.47
2018-01-02T07:49:07.062Z,98599.08
2018-01-02T07:51:35.338Z,98599.80
2018-01-02T07:54:03.614Z,98603.98
2018-01-02T07:56:31.895Z,98610.36
2018-01-02T07:59:00.175Z,98616.89
2018-01-02T08:01:28.463Z,98624.03
2018-01-02T08:03:56.847Z,98626.83
2018-01-02T08:06:25.064Z,98623.09
2018-01-02T08:08:53.355Z,98650.66
2018-01-02T08:11:22.387Z,98658.72
2018-01-02T08:13:50.661Z,98659.55
2018-01-02T08:16:18.947Z,98667.67
2018-01-02T08:18:47.222Z,98674.84
2018-01-02T08:21:15.521Z,98704.47
2018-01-02T08:23:44.059Z,98682.37
2018-01-02T08:26:12.955Z,98706.31
2018-01-02T08:28:41.234Z,98703.61
2018-01-02T08:31:09.511Z,98710.97
2018-01-02T08:33:38.696Z,98714.44
2018-01-02T08:36:06.995Z,98719.73
2018-01-02T08:38:35.241Z,98724.95
2018-01-02T08:41:03.539Z,98728.87
2018-01-02T08:43:31.804Z,98725.90
2018-01-02T08:46:00.074Z,98738.37
2018-01-02T08:48:28.351Z,98734.98
2018-01-02T08:50:56.620Z,98732.92
2018-01-02T08:53:25.209Z,98747.25
2018-01-02T08:55:53.508Z,98735.70
2018-01-02T08:58:21.797Z,98742.66
2018-01-02T09:00:50.981Z,98750.97
2018-01-02T09:03:19.256Z,98755.22
2018-01-02T09:05:48.516Z,98758.41
2018-01-02T09:08:16.762Z,98768.40
2018-01-02T09:10:45.018Z,98771.97
2018-01-02T09:13:17.156Z,98775.44
2018-01-02T09:15:45.450Z,98773.37
2018-01-02T09:18:13.741Z,98782.31
2018-01-02T09:20:41.993Z,98787.77
2018-01-02T09:23:10.291Z,98798.06
2018-01-02T09:25:38.538Z,98807.59
2018-01-02T09:28:06.819Z,98810.09
2018-01-02T09:30:35.188Z,98812.42
2018-01-02T09:33:03.439Z,98798.47
2018-01-02T09:35:31.696Z,98802.95
2018-01-02T09:37:59.952Z,98812.87
2018-01-02T09:40:28.259Z,98813.27
2018-01-02T09:42:56.523Z,98835.19
2018-01-02T09:45:24.792Z,98815.12
2018-01-02T09:47:53.143Z,98794.56
2018-01-02T09:50:21.515Z,98836.38
2018-01-02T09:52:49.820Z,98822.89
2018-01-02T09:55:18.969Z,98828.67
2018-01-02T09:57:47.246Z,98829.68
2018-01-02T10:00:15.492Z,98834.09
2018-01-02T10:02:43.835Z,98834.03
2018-01-02T10:05:12.088Z,98828.97
2018-01-02T10:07:40.373Z,98819.75
2018-01-02T10:10:08.790Z,98832.08
2018-01-02T10:12:37.071Z,98816.94
2018-01-02T10:15:05.314Z,98814.13
2018-01-02T10:17:33.615Z,98818.20
2018-01-02T10:20:01.913Z,98813.50
2018-01-02T10:22:30.168Z,98834.85
2018-01-02T10:24:58.494Z,98828.83
2018-01-02T10:27:26.848Z,98831.38
2018-01-02T10:29:55.114Z,98828.89
2018-01-02T10:32:23.357Z,98826.47
2018-01-02T10:34:51.650Z,98814.93
2018-01-02T10:37:19.935Z,98817.08
2018-01-02T10:39:48.247Z,98822.05
2018-01-02T10:42:16.569Z,98812.75
2018-01-02T10:44:44.874Z,98827.80
2018-01-02T10:47:13.120Z,98823.62
2018-01-02T10:49:41.417Z,98820.66
2018-01-02T10:52:09.748Z,98817.38
2018-01-02T10:54:38.021Z,98824.47
2018-01-02T10:57:06.307Z,98820.47
2018-01-02T10:59:34.578Z,98829.94
2018-01-02T11:02:02.882Z,98817.61
2018-01-02T11:04:31.171Z,98836.59
2018-01-02T11:06:59.470Z,98831.51
2018-01-02T11:09:27.775Z,98824.42
2018-01-02T11:11:58.912Z,98821.09
2018-01-02T11:14:32.839Z,98822.16
2018-01-02T11:17:01.108Z,98823.70
2018-01-02T11:19:29.395Z,98825.55
2018-01-02T11:21:57.943Z,98829.44
2018-01-02T11:24:26.201Z,98826.05
2018-01-02T11:26:55.069Z,98836.39
2018-01-02T11:29:23.319Z,98823.27
2018-01-02T11:31:51.668Z,98822.50
2018-01-02T11:34:19.927Z,98821.61
2018-01-02T11:36:48.308Z,98825.27
2018-01-02T11:39:16.713Z,98829.80
2018-01-02T11:41:44.938Z,98811.27
2018-01-02T11:44:13.218Z,98819.87
2018-01-02T11:46:41.541Z,98815.09
2018-01-02T11:49:10.748Z,98806.09
2018-01-02T11:51:39.116Z,98825.23
2018-01-02T11:54:07.402Z,98824.14
2018-01-02T11:56:35.980Z,98828.09
2018-01-02T11:59:04.386Z,98853.64
2018-01-02T12:01:32.630Z,98844.89
2018-01-02T12:04:01.680Z,98842.34
2018-01-02T12:06:30.656Z,98834.83
2018-01-02T12:08:58.908Z,98831.45
2018-01-02T12:11:27.232Z,98838.38
2018-01-02T12:13:55.509Z,98845.92
2018-01-02T12:16:23.792Z,98836.14
2018-01-02T12:18:58.906Z,98839.95
2018-01-02T12:21:27.534Z,98841.58
2018-01-02T12:23:55.810Z,98829.10
2018-01-02T12:26:24.080Z,98831.95
2018-01-02T12:28:52.362Z,98815.78
2018-01-02T12:31:20.654Z,98818.58
2018-01-02T12:33:48.927Z,98803.83
2018-01-02T12:36:17.199Z,98801.92
2018-01-02T12:38:45.542Z,98790.36
2018-01-02T12:41:13.786Z,98788.69
2018-01-02T12:43:42.098Z,98790.73
2018-01-02T12:46:10.398Z,98769.18
2018-01-02T12:48:38.698Z,98780.13
2018-01-02T12:51:07.471Z,98787.16
2018-01-02T12:53:35.894Z,98783.80
2018-01-02T12:56:04.203Z,98792.94
2018-01-02T12:58:32.484Z,98789.86
2018-01-02T13:01:00.778Z,98794.73
2018-01-02T13:03:29.028Z,98790.50
2018-01-02T13:05:57.337Z,98792.33
2018-01-02T13:08:25.616Z,98793.48
2018-01-02T13:10:53.950Z,98790.52
2018-01-02T13:13:22.207Z,98795.41
2018-01-02T13:15:50.503Z,98788.59
2018-01-02T13:18:18.844Z,98812.44
2018-01-02T13:20:47.132Z,98796.09
2018-01-02T13:25:49.041Z,98795.01
2018-01-02T13:28:17.351Z,98793.41
2018-01-02T13:30:45.717Z,98793.01
2018-01-02T13:33:14.096Z,98800.08
2018-01-02T13:35:42.718Z,98808.91
2018-01-02T13:38:10.995Z,98821.67
2018-01-02T13:40:39.342Z,98824.36
2018-01-02T13:43:07.643Z,98831.02
2018-01-02T13:45:35.941Z,98821.32
2018-01-02T13:48:04.315Z,98819.69
2018-01-02T13:50:32.590Z,98817.79
2018-01-02T13:53:00.899Z,98822.63
2018-01-02T13:55:29.161Z,98822.98
2018-01-02T13:57:57.443Z,98820.23
2018-01-02T14:00:25.714Z,98805.88
2018-01-02T14:02:54.027Z,98818.06
2018-01-02T14:05:22.393Z,98809.67
2018-01-02T14:07:50.748Z,98803.75
2018-01-02T14:10:19.041Z,98819.89
2018-01-02T14:12:48.433Z,98809.09
2018-01-02T14:15:17.800Z,98825.98
2018-01-02T14:17:46.214Z,98824.65
2018-01-02T14:20:14.706Z,98828.82
2018-01-02T14:22:43.142Z,98834.45
2018-01-02T14:25:11.444Z,98828.30
2018-01-02T14:27:40.441Z,98822.67
2018-01-02T14:30:08.732Z,98828.36
2018-01-02T14:32:37.022Z,98826.22
2018-01-02T14:35:05.319Z,98825.75
2018-01-02T14:37:33.649Z,98819.32
2018-01-02T14:40:01.931Z,98825.72
2018-01-02T14:42:30.217Z,98819.87
2018-01-02T14:44:58.536Z,98816.64
2018-01-02T14:47:26.854Z,98815.50
2018-01-02T14:49:55.878Z,98813.44
2018-01-02T14:52:24.159Z,98805.89
2018-01-02T14:54:52.573Z,98807.06
2018-01-02T14:57:21.605Z,98810.55
2018-01-02T14:59:49.882Z,98811.23
2018-01-02T15:02:18.220Z,98805.05
2018-01-02T15:04:46.652Z,98799.16
2018-01-02T15:07:15.842Z,98794.44
2018-01-02T15:09:44.144Z,98796.47
2018-01-02T15:12:12.418Z,98795.35
2018-01-02T15:14:40.780Z,98785.72
2018-01-02T15:17:09.169Z,98778.14
2018-01-02T15:19:37.472Z,98758.30
2018-01-02T15:22:05.733Z,98759.38
2018-01-02T15:24:34.504Z,98760.64
2018-01-02T15:27:03.040Z,98759.16
2018-01-02T15:29:31.318Z,98737.52
2018-01-02T15:31:59.579Z,98761.91
2018-01-02T15:34:27.919Z,98777.81
2018-01-02T15:36:56.196Z,98777.03
2018-01-02T15:39:24.472Z,98775.86
2018-01-02T15:41:52.756Z,98782.20
2018-01-02T15:44:21.050Z,98755.98
2018-01-02T15:46:49.629Z,98752.95
2018-01-02T15:49:17.889Z,98754.23
2018-01-02T15:51:46.197Z,98734.55
2018-01-02T15:54:14.439Z,98737.30
2018-01-02T15:56:42.751Z,98733.77
2018-01-02T15:59:11.015Z,98730.86
2018-01-02T16:01:40.262Z,98735.52
2018-01-02T16:04:08.565Z,98748.45
2018-01-02T16:06:36.859Z,98732.66
2018-01-02T16:09:05.226Z,98730.37
2018-01-02T16:11:33.577Z,98733.93
2018-01-02T16:14:01.890Z,98734.96
2018-01-02T16:16:31.563Z,98740.45
2018-01-02T16:18:59.865Z,98742.73
2018-01-02T16:21:28.220Z,98740.30
2018-01-02T16:23:56.537Z,98746.18
2018-01-02T16:26:25.325Z,98749.02
2018-01-02T16:28:53.769Z,98746.16
2018-01-02T16:31:22.006Z,98753.94
2018-01-02T16:33:50.304Z,98752.02
2018-01-02T16:36:18.628Z,98749.16
2018-01-02T16:38:46.908Z,98751.70
2018-01-02T16:41:15.208Z,98750.14
2018-01-02T16:43:43.555Z,98750.61
2018-01-02T16:46:11.975Z,98742.78
2018-01-02T16:48:40.758Z,98742.78
2018-01-02T16:51:09.018Z,98738.18
2018-01-02T16:53:37.287Z,98741.58
2018-01-02T16:56:05.567Z,98743.67
2018-01-02T16:58:33.840Z,98738.72
2018-01-02T17:01:02.135Z,98741.17
2018-01-02T17:03:30.391Z,98735.23
2018-01-02T17:05:58.699Z,98733.89
2018-01-02T17:08:27.083Z,98735.90
2018-01-02T17:10:55.333Z,98732.12
2018-01-02T17:13:23.657Z,98724.86
2018-01-02T17:15:51.933Z,98726.72
2018-01-02T17:18:20.246Z,98711.97
2018-01-02T17:20:48.555Z,98711.95
2018-01-02T17:23:16.839Z,98715.71
2018-01-02T17:25:45.170Z,98709.84
2018-01-02T17:28:13.519Z,98706.36
2018-01-02T17:30:41.834Z,98701.64
2018-01-02T17:33:10.137Z,98699.97
2018-01-02T17:35:38.415Z,98695.03
2018-01-02T17:38:06.719Z,98671.13
2018-01-02T17:40:34.938Z,98681.70
2018-01-02T17:43:03.237Z,98687.38
2018-01-02T17:45:31.564Z,98698.20
2018-01-02T17:47:59.863Z,98695.20
2018-01-02T17:50:28.922Z,98693.06
2018-01-02T17:52:57.185Z,98681.67
2018-01-02T17:55:25.555Z,98688.47
2018-01-02T17:57:53.828Z,98697.16
2018-01-02T18:05:16.771Z,98666.86
2018-01-02T18:07:45.036Z,98659.23
2018-01-02T18:10:13.360Z,98640.70
2018-01-02T18:12:41.616Z,98632.38
2018-01-02T18:15:10.630Z,98620.44
2018-01-02T18:17:38.888Z,98625.22
2018-01-02T18:20:07.139Z,98621.31
2018-01-02T18:22:35.415Z,98623.69
2018-01-02T18:25:03.687Z,98617.03
2018-01-02T18:27:31.967Z,98604.39
2018-01-02T18:30:00.241Z,98611.89
2018-01-02T18:32:28.506Z,98607.69
2018-01-02T18:34:56.758Z,98607.96
2018-01-02T18:37:25.039Z,98611.02
2018-01-02T18:39:53.298Z,98621.30
2018-01-02T18:42:21.619Z,98622.37
2018-01-02T18:44:49.899Z,98617.91
2018-01-02T18:47:18.174Z,98619.80
2018-01-02T18:49:46.467Z,98618.70
2018-01-02T18:52:14.751Z,98614.22
2018-01-02T18:54:43.055Z,98606.13
2018-01-02T18:57:11.324Z,98601.25
2018-01-02T18:59:39.642Z,98599.17
2018-01-02T19:02:07.912Z,98603.52
2018-01-02T19:04:36.211Z,98596.07
2018-01-02T19:07:05.519Z,98595.88
2018-01-02T19:09:33.824Z,98591.91
2018-01-02T19:12:02.038Z,98591.21
2018-01-02T19:14:30.322Z,98588.98
2018-01-02T19:16:58.590Z,98584.85
2018-01-02T19:19:26.887Z,98582.60
2018-01-02T19:21:55.146Z,98575.97
2018-01-02T19:24:23.444Z,98575.47
2018-01-02T19:26:51.720Z,98567.58
2018-01-02T19:29:19.991Z,98559.47
2018-01-02T19:31:49.088Z,98564.00
2018-01-02T19:34:17.365Z,98564.34
2018-01-02T19:36:45.644Z,98545.70
2018-01-02T19:39:13.914Z,98535.83
2018-01-02T19:41:42.217Z,98520.17
2018-01-02T19:44:10.493Z,98522.61
2018-01-02T19:46:38.770Z,98520.02
2018-01-02T19:49:07.027Z,98508.71
2018-01-02T19:51:35.335Z,98490.59
2018-01-02T19:54:03.626Z,98518.42
2018-01-02T19:56:31.879Z,98512.39
2018-01-02T19:59:00.149Z,98496.46
2018-01-02T20:01:28.428Z,98483.25
2018-01-02T20:03:56.687Z,98485.37
2018-01-02T20:06:26.185Z,98473.33
2018-01-02T20:08:54.440Z,98475.69
2018-01-02T20:11:22.699Z,98482.48
2018-01-02T20:13:51.839Z,98472.66
2018-01-02T20:16:20.114Z,98452.64
2018-01-02T20:18:49.018Z,98457.01
2018-01-02T20:21:17.301Z,98446.19
2018-01-02T20:23:45.588Z,98435.79
2018-01-02T20:26:13.847Z,98421.62
2018-01-02T20:28:42.123Z,98387.02
2018-01-02T20:31:10.384Z,98414.20
2018-01-02T20:33:39.733Z,98425.01
2018-01-02T20:36:08.031Z,98416.97
2018-01-02T20:38:36.283Z,98414.50
2018-01-02T20:41:04.601Z,98392.25
2018-01-02T20:43:32.859Z,98391.93
2018-01-02T20:46:01.811Z,98389.59
2018-01-02T20:48:30.066Z,98380.55
2018-01-02T20:50:58.423Z,98375.56
2018-01-02T20:53:26.665Z,98363.03
2018-01-02T20:55:55.415Z,98361.89
2018-01-02T20:58:23.631Z,98371.23
2018-01-02T21:00:51.921Z,98345.34
2018-01-02T21:03:20.205Z,98354.84
2018-01-02T21:05:48.510Z,98347.58
2018-01-02T21:08:16.765Z,98344.16
2018-01-02T21:10:45.048Z,98336.11
2018-01-02T21:13:13.330Z,98327.34
2018-01-02T21:15:41.604Z,98327.67
2018-01-02T21:18:09.898Z,98323.03
2018-01-02T21:20:38.180Z,98326.55
2018-01-02T21:23:06.515Z,98324.86
2018-01-02T21:25:34.719Z,98313.94
2018-01-02T21:28:03.170Z,98323.93
2018-01-02T21:30:31.392Z,98312.66
2018-01-02T21:32:59.676Z,98308.45
2018-01-02T21:35:27.921Z,98313.41
2018-01-02T21:37:56.274Z,98305.42
2018-01-02T21:40:24.495Z,98303.52
2018-01-02T21:42:56.004Z,98301.34
2018-01-02T21:45:24.260Z,98296.56
2018-01-02T21:47:52.519Z,98292.39
2018-01-02T21:50:20.796Z,98286.22
2018-01-02T21:52:49.337Z,98278.45
2018-01-02T21:55:17.628Z,98285.06
2018-01-02T21:57:45.879Z,98276.27
2018-01-02T22:00:14.205Z,98269.81
2018-01-02T22:02:42.516Z,98271.75
2018-01-02T22:05:10.821Z,98265.90
2018-01-02T22:07:39.088Z,98269.60
2018-01-02T22:10:07.346Z,98246.73
2018-01-02T22:12:35.587Z,98254.48
2018-01-02T22:15:03.889Z,98253.44
2018-01-02T22:17:32.170Z,98250.41
2018-01-02T22:20:00.437Z,98250.42
2018-01-02T22:22:28.723Z,98222.86
2018-01-02T22:24:56.997Z,98223.74
2018-01-02T22:27:25.292Z,98218.82
2018-01-02T22:29:53.578Z,98217.25
2018-01-02T22:32:21.927Z,98205.53
2018-01-02T22:34:50.193Z,98212.38
2018-01-02T22:37:18.685Z,98182.56
2018-01-02T22:39:46.923Z,98171.51
2018-01-02T22:42:15.190Z,98148.52
2018-01-02T22:44:43.463Z,98148.14
2018-01-02T22:47:11.885Z,98145.50
2018-01-02T22:49:40.167Z,98135.79
2018-01-02T22:52:08.436Z,98137.22
2018-01-02T22:54:36.682Z,98131.97
2018-01-02T22:57:04.936Z,98138.78
2018-01-02T22:59:33.226Z,98137.62
2018-01-02T23:02:01.487Z,98118.56
2018-01-02T23:04:29.780Z,98095.42
2018-01-02T23:06:58.111Z,98098.45
2018-01-02T23:09:26.473Z,98084.91
2018-01-02T23:11:54.744Z,98078.73
2018-01-02T23:14:22.986Z,98067.70
2018-01-02T23:16:51.283Z,98046.28
2018-01-02T23:19:19.526Z,98061.53
2018-01-02T23:21:47.840Z,98051.27
2018-01-02T23:24:16.112Z,98039.59
2018-01-02T23:26:44.405Z,98038.12
2018-01-02T23:29:12.650Z,98037.45
2018-01-02T23:31:40.931Z,98028.90
2018-01-02T23:34:09.228Z,98020.22
2018-01-02T23:36:37.470Z,98018.53
2018-01-02T23:39:05.742Z,98011.81
2018-01-02T23:41:34.010Z,97989.11
2018-01-02T23:44:02.273Z,97991.61
2018-01-02T23:46:30.525Z,97975.20
2018-01-02T23:48:58.890Z,97965.05
2018-01-02T23:51:27.114Z,97956.89
2018-01-02T23:53:55.413Z,97939.80
2018-01-02T23:56:23.650Z,97933.23
2018-01-02T23:58:51.926Z,97920.75
